sensor_id;sensor_type;location;lat;lon;timestamp;pressure;altitude;pressure_sealevel;temperature;humidity
44934;BME280;30667;43.614;1.442;2024-02-16T00:00:26;100055.97;;;14.22;100.00
44934;BME280;30667;43.614;1.442;2024-02-16T00:02:52;100067.47;;;14.19;100.00
44934;BME280;30667;43.614;1.442;2024-02-16T00:05:18;100073.16;;;14.04;100.00
44934;BME280;30667;43.614;1.442;2024-02-16T00:07:49;100077.66;;;14.27;100.00
44934;BME280;30667;43.614;1.442;2024-02-16T00:10:14;100078.97;;;14.58;100.00
44934;BME280;30667;43.614;1.442;2024-02-16T00:12:46;100076.16;;;14.77;100.00
44934;BME280;30667;43.614;1.442;2024-02-16T00:15:11;100085.84;;;14.55;100.00
44934;BME280;30667;43.614;1.442;2024-02-16T00:17:38;100074.34;;;14.72;100.00
44934;BME280;30667;43.614;1.442;2024-02-16T00:20:04;100080.00;;;14.89;100.00
44934;BME280;30667;43.614;1.442;2024-02-16T00:22:35;100086.41;;;14.24;100.00
44934;BME280;30667;43.614;1.442;2024-02-16T00:25:01;100090.22;;;14.09;100.00
44934;BME280;30667;43.614;1.442;2024-02-16T00:27:32;100097.09;;;14.21;100.00
44934;BME280;30667;43.614;1.442;2024-02-16T00:29:58;100103.72;;;14.14;100.00
44934;BME280;30667;43.614;1.442;2024-02-16T00:32:23;100106.91;;;13.89;100.00
44934;BME280;30667;43.614;1.442;2024-02-16T00:34:53;100108.75;;;13.74;100.00
44934;BME280;30667;43.614;1.442;2024-02-16T00:37:22;100109.66;;;13.51;100.00
44934;BME280;30667;43.614;1.442;2024-02-16T00:39:47;100109.53;;;13.42;100.00
44934;BME280;30667;43.614;1.442;2024-02-16T00:42:16;100109.53;;;13.61;100.00
44934;BME280;30667;43.614;1.442;2024-02-16T00:45:01;100116.72;;;13.71;100.00
44934;BME280;30667;43.614;1.442;2024-02-16T00:47:37;100122.44;;;13.69;100.00
44934;BME280;30667;43.614;1.442;2024-02-16T00:50:13;100121.28;;;13.32;100.00
44934;BME280;30667;43.614;1.442;2024-02-16T00:52:41;100124.28;;;13.55;100.00
44934;BME280;30667;43.614;1.442;2024-02-16T00:55:10;100118.63;;;13.51;100.00
44934;BME280;30667;43.614;1.442;2024-02-16T00:57:35;100119.88;;;13.59;100.00
44934;BME280;30667;43.614;1.442;2024-02-16T01:00:01;100122.38;;;13.36;100.00
44934;BME280;30667;43.614;1.442;2024-02-16T01:02:31;100126.72;;;13.32;100.00
44934;BME280;30667;43.614;1.442;2024-02-16T01:04:57;100129.44;;;13.37;100.00
44934;BME280;30667;43.614;1.442;2024-02-16T01:07:27;100134.41;;;13.49;100.00
44934;BME280;30667;43.614;1.442;2024-02-16T01:09:52;100140.00;;;13.39;100.00
44934;BME280;30667;43.614;1.442;2024-02-16T01:12:17;100132.03;;;13.23;100.00
44934;BME280;30667;43.614;1.442;2024-02-16T01:14:46;100125.03;;;13.17;100.00
44934;BME280;30667;43.614;1.442;2024-02-16T01:17:11;100126.38;;;13.20;100.00
44934;BME280;30667;43.614;1.442;2024-02-16T01:19:43;100128.16;;;13.30;100.00
44934;BME280;30667;43.614;1.442;2024-02-16T01:22:08;100121.78;;;13.39;100.00
44934;BME280;30667;43.614;1.442;2024-02-16T01:24:34;100126.72;;;13.32;100.00
44934;BME280;30667;43.614;1.442;2024-02-16T01:27:02;100128.06;;;13.16;100.00
44934;BME280;30667;43.614;1.442;2024-02-16T01:29:28;100125.13;;;13.31;100.00
44934;BME280;30667;43.614;1.442;2024-02-16T01:31:53;100123.69;;;13.58;100.00
44934;BME280;30667;43.614;1.442;2024-02-16T01:34:25;100126.81;;;13.27;100.00
44934;BME280;30667;43.614;1.442;2024-02-16T01:36:56;100122.38;;;13.36;100.00
44934;BME280;30667;43.614;1.442;2024-02-16T01:39:21;100128.34;;;13.14;100.00
44934;BME280;30667;43.614;1.442;2024-02-16T01:41:47;100128.22;;;13.24;100.00
44934;BME280;30667;43.614;1.442;2024-02-16T01:44:15;100127.09;;;13.25;100.00
44934;BME280;30667;43.614;1.442;2024-02-16T01:46:42;100122.03;;;13.19;100.00
44934;BME280;30667;43.614;1.442;2024-02-16T01:49:20;100122.16;;;13.33;100.00
44934;BME280;30667;43.614;1.442;2024-02-16T01:51:49;100125.78;;;13.23;100.00
44934;BME280;30667;43.614;1.442;2024-02-16T01:54:18;100117.09;;;13.21;100.00
44934;BME280;30667;43.614;1.442;2024-02-16T01:56:53;100119.69;;;13.12;100.00
44934;BME280;30667;43.614;1.442;2024-02-16T01:59:25;100127.31;;;13.10;100.00
44934;BME280;30667;43.614;1.442;2024-02-16T02:01:51;100123.13;;;12.99;100.00
44934;BME280;30667;43.614;1.442;2024-02-16T02:04:16;100112.56;;;12.97;100.00
44934;BME280;30667;43.614;1.442;2024-02-16T02:06:44;100120.69;;;12.97;100.00
44934;BME280;30667;43.614;1.442;2024-02-16T02:09:09;100123.16;;;12.94;100.00
44934;BME280;30667;43.614;1.442;2024-02-16T02:11:38;100126.16;;;12.92;100.00
44934;BME280;30667;43.614;1.442;2024-02-16T02:14:03;100131.75;;;13.25;100.00
44934;BME280;30667;43.614;1.442;2024-02-16T02:16:29;100132.31;;;13.22;100.00
44934;BME280;30667;43.614;1.442;2024-02-16T02:18:57;100128.56;;;12.99;100.00
44934;BME280;30667;43.614;1.442;2024-02-16T02:21:22;100123.41;;;12.97;100.00
44934;BME280;30667;43.614;1.442;2024-02-16T02:23:48;100126.28;;;13.06;100.00
44934;BME280;30667;43.614;1.442;2024-02-16T02:26:17;100121.59;;;13.12;100.00
44934;BME280;30667;43.614;1.442;2024-02-16T02:28:42;100128.78;;;13.02;100.00
44934;BME280;30667;43.614;1.442;2024-02-16T02:31:11;100134.22;;;13.02;100.00
44934;BME280;30667;43.614;1.442;2024-02-16T02:33:42;100134.59;;;12.90;100.00
44934;BME280;30667;43.614;1.442;2024-02-16T02:36:11;100131.03;;;12.95;100.00
44934;BME280;30667;43.614;1.442;2024-02-16T02:38:36;100122.59;;;12.97;100.00
44934;BME280;30667;43.614;1.442;2024-02-16T02:41:02;100126.47;;;12.90;100.00
44934;BME280;30667;43.614;1.442;2024-02-16T02:43:34;100128.84;;;12.97;100.00
44934;BME280;30667;43.614;1.442;2024-02-16T02:46:14;100122.97;;;13.09;100.00
44934;BME280;30667;43.614;1.442;2024-02-16T02:48:40;100126.34;;;13.01;100.00
44934;BME280;30667;43.614;1.442;2024-02-16T02:51:12;100127.28;;;12.91;100.00
44934;BME280;30667;43.614;1.442;2024-02-16T02:53:43;100125.44;;;12.86;100.00
44934;BME280;30667;43.614;1.442;2024-02-16T02:56:09;100128.97;;;12.87;100.00
44934;BME280;30667;43.614;1.442;2024-02-16T02:58:34;100132.22;;;13.08;100.00
44934;BME280;30667;43.614;1.442;2024-02-16T03:01:06;100127.22;;;12.96;100.00
44934;BME280;30667;43.614;1.442;2024-02-16T03:03:33;100127.59;;;12.89;100.00
44934;BME280;30667;43.614;1.442;2024-02-16T03:06:02;100129.72;;;12.93;100.00
44934;BME280;30667;43.614;1.442;2024-02-16T03:08:28;100134.97;;;12.84;100.00
44934;BME280;30667;43.614;1.442;2024-02-16T03:10:54;100134.53;;;12.77;100.00
44934;BME280;30667;43.614;1.442;2024-02-16T03:13:22;100144.84;;;12.75;100.00
44934;BME280;30667;43.614;1.442;2024-02-16T03:15:57;100147.34;;;12.71;100.00
44934;BME280;30667;43.614;1.442;2024-02-16T03:18:34;100144.63;;;12.71;100.00
44934;BME280;30667;43.614;1.442;2024-02-16T03:21:01;100147.63;;;12.69;100.00
44934;BME280;30667;43.614;1.442;2024-02-16T03:23:30;100150.34;;;12.69;100.00
44934;BME280;30667;43.614;1.442;2024-02-16T03:26:01;100150.91;;;12.66;100.00
44934;BME280;30667;43.614;1.442;2024-02-16T03:28:33;100149.88;;;12.62;100.00
44934;BME280;30667;43.614;1.442;2024-02-16T03:31:04;100165.91;;;12.59;100.00
44934;BME280;30667;43.614;1.442;2024-02-16T03:33:33;100153.22;;;12.54;100.00
44934;BME280;30667;43.614;1.442;2024-02-16T03:36:05;100157.09;;;12.48;100.00
44934;BME280;30667;43.614;1.442;2024-02-16T03:38:44;100160.88;;;12.47;100.00
44934;BME280;30667;43.614;1.442;2024-02-16T03:41:25;100163.09;;;12.45;100.00
44934;BME280;30667;43.614;1.442;2024-02-16T03:43:57;100166.88;;;12.44;100.00
44934;BME280;30667;43.614;1.442;2024-02-16T03:46:26;100159.59;;;12.39;100.00
44934;BME280;30667;43.614;1.442;2024-02-16T03:48:55;100172.88;;;12.41;100.00
44934;BME280;30667;43.614;1.442;2024-02-16T03:51:26;100168.03;;;12.38;100.00
44934;BME280;30667;43.614;1.442;2024-02-16T03:53:58;100180.56;;;12.33;100.00
44934;BME280;30667;43.614;1.442;2024-02-16T03:56:30;100177.84;;;12.33;100.00
44934;BME280;30667;43.614;1.442;2024-02-16T03:59:04;100186.56;;;12.30;100.00
44934;BME280;30667;43.614;1.442;2024-02-16T04:01:36;100189.28;;;12.30;100.00
44934;BME280;30667;43.614;1.442;2024-02-16T04:06:56;100191.78;;;12.22;100.00
44934;BME280;30667;43.614;1.442;2024-02-16T04:09:25;100199.63;;;12.23;100.00
44934;BME280;30667;43.614;1.442;2024-02-16T04:11:50;100189.34;;;12.20;100.00
44934;BME280;30667;43.614;1.442;2024-02-16T04:14:22;100205.38;;;12.16;100.00
44934;BME280;30667;43.614;1.442;2024-02-16T04:16:53;100208.31;;;12.20;100.00
44934;BME280;30667;43.614;1.442;2024-02-16T04:22:07;100208.88;;;12.17;100.00
44934;BME280;30667;43.614;1.442;2024-02-16T04:24:38;100207.91;;;12.08;100.00
44934;BME280;30667;43.614;1.442;2024-02-16T04:27:03;100206.00;;;12.08;100.00
44934;BME280;30667;43.614;1.442;2024-02-16T04:29:35;100216.84;;;12.08;100.00
44934;BME280;30667;43.614;1.442;2024-02-16T04:32:06;100215.50;;;12.06;100.00
44934;BME280;30667;43.614;1.442;2024-02-16T04:34:36;100225.53;;;12.05;100.00
44934;BME280;30667;43.614;1.442;2024-02-16T04:37:02;100222.03;;;12.05;100.00
44934;BME280;30667;43.614;1.442;2024-02-16T04:39:27;100236.16;;;12.02;100.00
44934;BME280;30667;43.614;1.442;2024-02-16T04:41:57;100234.22;;;12.02;100.00
44934;BME280;30667;43.614;1.442;2024-02-16T04:44:26;100238.31;;;11.99;100.00
44934;BME280;30667;43.614;1.442;2024-02-16T04:46:55;100239.41;;;11.98;100.00
44934;BME280;30667;43.614;1.442;2024-02-16T04:49:20;100254.91;;;11.93;100.00
44934;BME280;30667;43.614;1.442;2024-02-16T04:51:46;100251.63;;;11.96;100.00
44934;BME280;30667;43.614;1.442;2024-02-16T04:54:12;100250.81;;;11.95;100.00
44934;BME280;30667;43.614;1.442;2024-02-16T04:56:44;100258.72;;;11.92;100.00
44934;BME280;30667;43.614;1.442;2024-02-16T04:59:15;100255.16;;;11.91;100.00
44934;BME280;30667;43.614;1.442;2024-02-16T05:01:43;100265.22;;;11.86;100.00
44934;BME280;30667;43.614;1.442;2024-02-16T05:04:08;100268.22;;;11.84;100.00
44934;BME280;30667;43.614;1.442;2024-02-16T05:06:47;100268.50;;;11.82;100.00
44934;BME280;30667;43.614;1.442;2024-02-16T05:09:12;100277.44;;;11.83;100.00
44934;BME280;30667;43.614;1.442;2024-02-16T05:11:47;100282.06;;;11.82;100.00
44934;BME280;30667;43.614;1.442;2024-02-16T05:14:16;100280.66;;;11.85;100.00
44934;BME280;30667;43.614;1.442;2024-02-16T05:16:47;100293.94;;;11.87;100.00
44934;BME280;30667;43.614;1.442;2024-02-16T05:19:16;100299.13;;;11.83;100.00
44934;BME280;30667;43.614;1.442;2024-02-16T05:21:41;100301.56;;;11.85;100.00
44934;BME280;30667;43.614;1.442;2024-02-16T05:24:19;100312.66;;;11.83;100.00
44934;BME280;30667;43.614;1.442;2024-02-16T05:26:45;100306.72;;;11.81;100.00
44934;BME280;30667;43.614;1.442;2024-02-16T05:29:11;100312.44;;;11.79;100.00
44934;BME280;30667;43.614;1.442;2024-02-16T05:31:42;100314.59;;;11.77;100.00
44934;BME280;30667;43.614;1.442;2024-02-16T05:34:07;100317.84;;;11.79;100.00
44934;BME280;30667;43.614;1.442;2024-02-16T05:36:34;100317.59;;;11.76;100.00
44934;BME280;30667;43.614;1.442;2024-02-16T05:39:04;100314.59;;;11.77;100.00
44934;BME280;30667;43.614;1.442;2024-02-16T05:41:51;100328.13;;;11.77;100.00
44934;BME280;30667;43.614;1.442;2024-02-16T05:44:26;100327.34;;;11.77;100.00
44934;BME280;30667;43.614;1.442;2024-02-16T05:46:57;100328.13;;;11.77;100.00
44934;BME280;30667;43.614;1.442;2024-02-16T05:49:22;100337.34;;;11.81;100.00
44934;BME280;30667;43.614;1.442;2024-02-16T05:51:55;100340.88;;;11.77;100.00
44934;BME280;30667;43.614;1.442;2024-02-16T05:54:49;100340.63;;;11.78;100.00
44934;BME280;30667;43.614;1.442;2024-02-16T05:57:17;100333.31;;;11.74;100.00
44934;BME280;30667;43.614;1.442;2024-02-16T05:59:52;100339.28;;;11.76;100.00
44934;BME280;30667;43.614;1.442;2024-02-16T06:02:27;100340.88;;;11.77;100.00
44934;BME280;30667;43.614;1.442;2024-02-16T06:07:57;100348.50;;;11.75;100.00
44934;BME280;30667;43.614;1.442;2024-02-16T06:10:24;100347.41;;;11.76;100.00
44934;BME280;30667;43.614;1.442;2024-02-16T06:12:49;100351.19;;;11.80;100.00
44934;BME280;30667;43.614;1.442;2024-02-16T06:15:15;100357.97;;;11.72;100.00
44934;BME280;30667;43.614;1.442;2024-02-16T06:17:41;100356.09;;;11.73;100.00
44934;BME280;30667;43.614;1.442;2024-02-16T06:20:10;100356.38;;;11.66;100.00
44934;BME280;30667;43.614;1.442;2024-02-16T06:22:39;100352.03;;;11.70;100.00
44934;BME280;30667;43.614;1.442;2024-02-16T06:25:10;100356.38;;;11.71;100.00
44934;BME280;30667;43.614;1.442;2024-02-16T06:27:38;100360.97;;;11.71;100.00
44934;BME280;30667;43.614;1.442;2024-02-16T06:30:07;100364.72;;;11.80;100.00
44934;BME280;30667;43.614;1.442;2024-02-16T06:32:37;100360.41;;;11.74;100.00
44934;BME280;30667;43.614;1.442;2024-02-16T06:35:09;100362.59;;;11.72;100.00
44934;BME280;30667;43.614;1.442;2024-02-16T06:37:37;100359.38;;;11.70;100.00
44934;BME280;30667;43.614;1.442;2024-02-16T06:40:10;100360.41;;;11.74;100.00
44934;BME280;30667;43.614;1.442;2024-02-16T06:42:44;100368.53;;;11.79;100.00
44934;BME280;30667;43.614;1.442;2024-02-16T06:45:14;100376.41;;;11.75;100.00
44934;BME280;30667;43.614;1.442;2024-02-16T06:47:47;100371.25;;;11.74;100.00
44934;BME280;30667;43.614;1.442;2024-02-16T06:50:19;100375.59;;;11.75;100.00
44934;BME280;30667;43.614;1.442;2024-02-16T06:52:48;100376.69;;;11.74;100.00
44934;BME280;30667;43.614;1.442;2024-02-16T06:55:13;100380.75;;;11.76;100.00
44934;BME280;30667;43.614;1.442;2024-02-16T06:57:44;100385.06;;;11.77;100.00
44934;BME280;30667;43.614;1.442;2024-02-16T07:00:16;100383.72;;;11.75;100.00
44934;BME280;30667;43.614;1.442;2024-02-16T07:02:45;100399.47;;;11.73;100.00
44934;BME280;30667;43.614;1.442;2024-02-16T07:05:13;100397.59;;;11.68;100.00
44934;BME280;30667;43.614;1.442;2024-02-16T07:07:39;100396.47;;;11.69;100.00
44934;BME280;30667;43.614;1.442;2024-02-16T07:10:15;100402.19;;;11.68;100.00
44934;BME280;30667;43.614;1.442;2024-02-16T07:12:44;100408.69;;;11.67;100.00
44934;BME280;30667;43.614;1.442;2024-02-16T07:15:39;100411.41;;;11.67;100.00
44934;BME280;30667;43.614;1.442;2024-02-16T07:18:05;100416.56;;;11.68;100.00
44934;BME280;30667;43.614;1.442;2024-02-16T07:20:42;100416.56;;;11.68;100.00
44934;BME280;30667;43.614;1.442;2024-02-16T07:23:13;100424.97;;;11.67;100.00
44934;BME280;30667;43.614;1.442;2024-02-16T07:25:43;100429.00;;;11.69;100.00
44934;BME280;30667;43.614;1.442;2024-02-16T07:28:08;100428.44;;;11.82;100.00
44934;BME280;30667;43.614;1.442;2024-02-16T07:30:40;100434.66;;;11.93;100.00
44934;BME280;30667;43.614;1.442;2024-02-16T07:33:15;100436.56;;;11.88;100.00
44934;BME280;30667;43.614;1.442;2024-02-16T07:35:47;100439.28;;;11.93;100.00
44934;BME280;30667;43.614;1.442;2024-02-16T07:38:12;100444.44;;;11.84;100.00
44934;BME280;30667;43.614;1.442;2024-02-16T07:40:38;100444.16;;;11.80;100.00
44934;BME280;30667;43.614;1.442;2024-02-16T07:43:03;100449.06;;;11.78;100.00
44934;BME280;30667;43.614;1.442;2024-02-16T07:45:29;100455.28;;;11.79;100.00
44934;BME280;30667;43.614;1.442;2024-02-16T07:47:56;100453.66;;;11.78;100.00
44934;BME280;30667;43.614;1.442;2024-02-16T07:50:22;100462.31;;;11.80;100.00
44934;BME280;30667;43.614;1.442;2024-02-16T07:52:51;100460.97;;;11.82;100.00
44934;BME280;30667;43.614;1.442;2024-02-16T07:55:19;100466.41;;;11.82;100.00
44934;BME280;30667;43.614;1.442;2024-02-16T08:01:29;100470.19;;;11.81;100.00
44934;BME280;30667;43.614;1.442;2024-02-16T08:03:55;100475.34;;;11.83;100.00
44934;BME280;30667;43.614;1.442;2024-02-16T08:06:25;100475.88;;;11.85;100.00
44934;BME280;30667;43.614;1.442;2024-02-16T08:08:50;100494.03;;;11.85;100.00
44934;BME280;30667;43.614;1.442;2024-02-16T08:11:16;100488.63;;;11.85;100.00
44934;BME280;30667;43.614;1.442;2024-02-16T08:13:41;100488.06;;;11.88;100.00
44934;BME280;30667;43.614;1.442;2024-02-16T08:16:06;100489.44;;;11.85;100.00
44934;BME280;30667;43.614;1.442;2024-02-16T08:18:33;100490.78;;;11.88;100.00
44934;BME280;30667;43.614;1.442;2024-02-16T08:20:59;100494.31;;;11.88;100.00
44934;BME280;30667;43.614;1.442;2024-02-16T08:23:24;100507.06;;;11.88;100.00
44934;BME280;30667;43.614;1.442;2024-02-16T08:25:50;100504.59;;;11.91;100.00
44934;BME280;30667;43.614;1.442;2024-02-16T08:28:15;100502.44;;;11.93;100.00
44934;BME280;30667;43.614;1.442;2024-02-16T08:30:40;100505.47;;;11.92;100.00
44934;BME280;30667;43.614;1.442;2024-02-16T08:33:09;100507.31;;;11.91;100.00
44934;BME280;30667;43.614;1.442;2024-02-16T08:35:34;100508.44;;;11.95;100.00
44934;BME280;30667;43.614;1.442;2024-02-16T08:38:03;100514.66;;;11.96;100.00
44934;BME280;30667;43.614;1.442;2024-02-16T08:40:28;100507.06;;;11.98;100.00
44934;BME280;30667;43.614;1.442;2024-02-16T08:42:54;100521.16;;;12.00;100.00
44934;BME280;30667;43.614;1.442;2024-02-16T08:45:20;100525.50;;;12.01;100.00
44934;BME280;30667;43.614;1.442;2024-02-16T08:47:45;100524.16;;;11.98;100.00
44934;BME280;30667;43.614;1.442;2024-02-16T08:50:11;100521.97;;;12.01;100.00
44934;BME280;30667;43.614;1.442;2024-02-16T08:52:37;100527.94;;;12.03;100.00
44934;BME280;30667;43.614;1.442;2024-02-16T08:55:02;100528.50;;;12.05;100.00
44934;BME280;30667;43.614;1.442;2024-02-16T08:57:28;100527.13;;;12.02;100.00
44934;BME280;30667;43.614;1.442;2024-02-16T08:59:53;100538.50;;;12.04;100.00
44934;BME280;30667;43.614;1.442;2024-02-16T09:02:21;100534.72;;;12.05;100.00
44934;BME280;30667;43.614;1.442;2024-02-16T09:04:47;100540.38;;;12.09;100.00
44934;BME280;30667;43.614;1.442;2024-02-16T09:07:12;100552.88;;;12.10;100.00
44934;BME280;30667;43.614;1.442;2024-02-16T09:09:38;100547.44;;;12.10;100.00
44934;BME280;30667;43.614;1.442;2024-02-16T09:12:03;100549.06;;;12.11;100.00
44934;BME280;30667;43.614;1.442;2024-02-16T09:14:29;100555.31;;;12.11;100.00
44934;BME280;30667;43.614;1.442;2024-02-16T09:16:55;100558.03;;;12.11;100.00
44934;BME280;30667;43.614;1.442;2024-02-16T09:19:20;100562.06;;;12.14;100.00
44934;BME280;30667;43.614;1.442;2024-02-16T09:21:45;100555.84;;;12.13;100.00
44934;BME280;30667;43.614;1.442;2024-02-16T09:24:11;100561.25;;;12.18;100.00
44934;BME280;30667;43.614;1.442;2024-02-16T09:26:42;100568.59;;;12.18;100.00
44934;BME280;30667;43.614;1.442;2024-02-16T09:29:08;100570.75;;;12.11;100.00
44934;BME280;30667;43.614;1.442;2024-02-16T09:31:36;100570.78;;;12.16;100.00
44934;BME280;30667;43.614;1.442;2024-02-16T09:34:01;100572.38;;;12.17;100.00
44934;BME280;30667;43.614;1.442;2024-02-16T09:36:27;100576.19;;;12.21;100.00
44934;BME280;30667;43.614;1.442;2024-02-16T09:38:53;100581.84;;;12.25;100.00
44934;BME280;30667;43.614;1.442;2024-02-16T09:41:18;100584.84;;;12.28;100.00
44934;BME280;30667;43.614;1.442;2024-02-16T09:43:44;100587.00;;;12.31;100.00
44934;BME280;30667;43.614;1.442;2024-02-16T09:46:09;100591.34;;;12.32;100.00
44934;BME280;30667;43.614;1.442;2024-02-16T09:48:35;100595.13;;;12.31;100.00
44934;BME280;30667;43.614;1.442;2024-02-16T09:51:01;100589.19;;;12.29;100.00
44934;BME280;30667;43.614;1.442;2024-02-16T09:53:28;100588.09;;;12.35;100.00
44934;BME280;30667;43.614;1.442;2024-02-16T09:55:55;100589.97;;;12.40;100.00
44934;BME280;30667;43.614;1.442;2024-02-16T09:58:20;100594.31;;;12.36;100.00
44934;BME280;30667;43.614;1.442;2024-02-16T10:00:52;100596.19;;;12.41;100.00
44934;BME280;30667;43.614;1.442;2024-02-16T10:03:28;100599.72;;;12.46;100.00
44934;BME280;30667;43.614;1.442;2024-02-16T10:06:07;100598.34;;;12.49;100.00
44934;BME280;30667;43.614;1.442;2024-02-16T10:08:33;100607.56;;;12.53;100.00
44934;BME280;30667;43.614;1.442;2024-02-16T10:11:03;100602.69;;;12.50;100.00
44934;BME280;30667;43.614;1.442;2024-02-16T10:13:30;100603.53;;;12.45;100.00
44934;BME280;30667;43.614;1.442;2024-02-16T10:16:09;100599.97;;;12.50;100.00
44934;BME280;30667;43.614;1.442;2024-02-16T10:18:38;100606.50;;;12.54;100.00
44934;BME280;30667;43.614;1.442;2024-02-16T10:21:04;100607.06;;;12.51;100.00
44934;BME280;30667;43.614;1.442;2024-02-16T10:23:30;100612.97;;;12.58;100.00
44934;BME280;30667;43.614;1.442;2024-02-16T10:25:56;100618.16;;;12.54;100.00
44934;BME280;30667;43.614;1.442;2024-02-16T10:28:23;100620.34;;;12.47;100.00
44934;BME280;30667;43.614;1.442;2024-02-16T10:30:57;100619.78;;;12.50;100.00
44934;BME280;30667;43.614;1.442;2024-02-16T10:33:24;100622.25;;;12.42;100.00
44934;BME280;30667;43.614;1.442;2024-02-16T10:35:50;100628.19;;;12.49;100.00
44934;BME280;30667;43.614;1.442;2024-02-16T10:38:18;100629.84;;;12.50;100.00
44934;BME280;30667;43.614;1.442;2024-02-16T10:40:47;100636.91;;;12.46;100.00
44934;BME280;30667;43.614;1.442;2024-02-16T10:43:17;100632.03;;;12.48;100.00
44934;BME280;30667;43.614;1.442;2024-02-16T10:45:43;100637.97;;;12.50;100.00
44934;BME280;30667;43.614;1.442;2024-02-16T10:48:10;100631.19;;;12.52;100.00
44934;BME280;30667;43.614;1.442;2024-02-16T10:50:36;100638.81;;;12.45;100.00
44934;BME280;30667;43.614;1.442;2024-02-16T10:53:48;100645.31;;;12.54;100.00
44934;BME280;30667;43.614;1.442;2024-02-16T10:56:07;100647.75;;;12.51;100.00
44934;BME280;30667;43.614;1.442;2024-02-16T10:58:32;100651.03;;;12.48;100.00
44934;BME280;30667;43.614;1.442;2024-02-16T11:01:08;100655.88;;;12.46;100.00
44934;BME280;30667;43.614;1.442;2024-02-16T11:03:38;100668.91;;;12.49;100.00
44934;BME280;30667;43.614;1.442;2024-02-16T11:06:14;100667.59;;;12.46;100.00
44934;BME280;30667;43.614;1.442;2024-02-16T11:08:40;100660.25;;;12.42;100.00
44934;BME280;30667;43.614;1.442;2024-02-16T11:11:06;100667.88;;;12.29;100.00
44934;BME280;30667;43.614;1.442;2024-02-16T11:13:34;100663.78;;;12.27;100.00
44934;BME280;30667;43.614;1.442;2024-02-16T11:16:07;100670.56;;;12.29;100.00
44934;BME280;30667;43.614;1.442;2024-02-16T11:18:37;100676.81;;;12.25;100.00
44934;BME280;30667;43.614;1.442;2024-02-16T11:21:03;100673.59;;;12.17;100.00
44934;BME280;30667;43.614;1.442;2024-02-16T11:23:30;100674.13;;;12.20;100.00
44934;BME280;30667;43.614;1.442;2024-02-16T11:26:09;100676.28;;;12.23;100.00
44934;BME280;30667;43.614;1.442;2024-02-16T11:28:40;100677.91;;;12.24;100.00
44934;BME280;30667;43.614;1.442;2024-02-16T11:31:06;100686.03;;;12.24;100.00
44934;BME280;30667;43.614;1.442;2024-02-16T11:33:35;100681.16;;;12.31;100.00
44934;BME280;30667;43.614;1.442;2024-02-16T11:36:03;100679.00;;;12.28;100.00
44934;BME280;30667;43.614;1.442;2024-02-16T11:38:34;100678.72;;;12.29;100.00
44934;BME280;30667;43.614;1.442;2024-02-16T11:41:02;100678.16;;;12.32;100.00
44934;BME280;30667;43.614;1.442;2024-02-16T11:43:30;100677.88;;;12.39;100.00
44934;BME280;30667;43.614;1.442;2024-02-16T11:45:57;100674.09;;;12.40;100.00
44934;BME280;30667;43.614;1.442;2024-02-16T11:48:25;100678.16;;;12.48;100.00
44934;BME280;30667;43.614;1.442;2024-02-16T11:51:00;100670.28;;;12.46;100.00
44934;BME280;30667;43.614;1.442;2024-02-16T11:53:25;100677.88;;;12.44;100.00
44934;BME280;30667;43.614;1.442;2024-02-16T11:55:51;100669.19;;;12.47;100.00
44934;BME280;30667;43.614;1.442;2024-02-16T11:58:20;100665.38;;;12.53;100.00
44934;BME280;30667;43.614;1.442;2024-02-16T12:00:57;100674.34;;;12.59;100.00
44934;BME280;30667;43.614;1.442;2024-02-16T12:03:25;100669.44;;;12.61;100.00
44934;BME280;30667;43.614;1.442;2024-02-16T12:05:58;100667.03;;;12.54;100.00
44934;BME280;30667;43.614;1.442;2024-02-16T12:08:31;100669.72;;;12.60;100.00
44934;BME280;30667;43.614;1.442;2024-02-16T12:10:56;100666.44;;;12.63;100.00
44934;BME280;30667;43.614;1.442;2024-02-16T12:13:22;100668.59;;;12.71;100.00
44934;BME280;30667;43.614;1.442;2024-02-16T12:15:48;100666.44;;;12.68;100.00
44934;BME280;30667;43.614;1.442;2024-02-16T12:18:26;100673.47;;;12.74;100.00
44934;BME280;30667;43.614;1.442;2024-02-16T12:21:00;100669.69;;;12.75;100.00
44934;BME280;30667;43.614;1.442;2024-02-16T12:23:26;100669.97;;;12.63;100.00
44934;BME280;30667;43.614;1.442;2024-02-16T12:25:52;100667.25;;;12.63;100.00
44934;BME280;30667;43.614;1.442;2024-02-16T12:28:18;100666.22;;;12.54;100.00
44934;BME280;30667;43.614;1.442;2024-02-16T12:30:45;100664.56;;;12.58;100.00
44934;BME280;30667;43.614;1.442;2024-02-16T12:33:11;100662.38;;;12.65;100.00
44934;BME280;30667;43.614;1.442;2024-02-16T12:35:36;100649.88;;;12.64;100.00
44934;BME280;30667;43.614;1.442;2024-02-16T12:38:01;100658.31;;;12.63;100.00
44934;BME280;30667;43.614;1.442;2024-02-16T12:40:27;100653.16;;;12.61;100.00
44934;BME280;30667;43.614;1.442;2024-02-16T12:42:52;100659.13;;;12.63;100.00
44934;BME280;30667;43.614;1.442;2024-02-16T12:45:18;100664.00;;;12.61;100.00
44934;BME280;30667;43.614;1.442;2024-02-16T12:47:43;100658.06;;;12.59;100.00
44934;BME280;30667;43.614;1.442;2024-02-16T12:50:08;100663.16;;;12.71;100.00
44934;BME280;30667;43.614;1.442;2024-02-16T12:52:34;100663.16;;;12.76;100.00
44934;BME280;30667;43.614;1.442;2024-02-16T12:55:03;100659.94;;;12.69;100.00
44934;BME280;30667;43.614;1.442;2024-02-16T12:57:29;100656.91;;;12.76;100.00
44934;BME280;30667;43.614;1.442;2024-02-16T12:59:54;100658.81;;;12.80;100.00